sensor_id;sensor_type;location;lat;lon;timestamp;P1;durP1;ratioP1;P2;durP2;ratioP2
8488;SDS011;4281;45.772;12.852;2023-04-28T00:00:51;4.50;;;4.17;;
8488;SDS011;4281;45.772;12.852;2023-04-28T00:03:19;4.37;;;3.97;;
8488;SDS011;4281;45.772;12.852;2023-04-28T00:05:48;4.20;;;3.90;;
8488;SDS011;4281;45.772;12.852;2023-04-28T00:08:17;4.10;;;3.80;;
8488;SDS011;4281;45.772;12.852;2023-04-28T00:10:46;4.50;;;4.00;;
8488;SDS011;4281;45.772;12.852;2023-04-28T00:13:14;4.10;;;3.70;;
8488;SDS011;4281;45.772;12.852;2023-04-28T00:15:42;3.97;;;3.67;;
8488;SDS011;4281;45.772;12.852;2023-04-28T00:18:10;4.13;;;3.83;;
8488;SDS011;4281;45.772;12.852;2023-04-28T00:20:38;4.50;;;4.20;;
8488;SDS011;4281;45.772;12.852;2023-04-28T00:23:07;4.93;;;4.53;;
8488;SDS011;4281;45.772;12.852;2023-04-28T00:25:34;4.17;;;3.87;;
8488;SDS011;4281;45.772;12.852;2023-04-28T00:28:05;4.53;;;4.13;;
8488;SDS011;4281;45.772;12.852;2023-04-28T00:30:33;4.63;;;4.23;;
8488;SDS011;4281;45.772;12.852;2023-04-28T00:33:00;4.80;;;4.40;;
8488;SDS011;4281;45.772;12.852;2023-04-28T00:35:28;4.33;;;4.03;;
8488;SDS011;4281;45.772;12.852;2023-04-28T00:37:57;4.20;;;3.90;;
8488;SDS011;4281;45.772;12.852;2023-04-28T00:40:32;4.83;;;4.43;;
8488;SDS011;4281;45.772;12.852;2023-04-28T00:43:02;4.17;;;3.77;;
8488;SDS011;4281;45.772;12.852;2023-04-28T00:45:30;4.70;;;4.30;;
8488;SDS011;4281;45.772;12.852;2023-04-28T00:48:00;4.40;;;4.00;;
8488;SDS011;4281;45.772;12.852;2023-04-28T00:50:28;4.60;;;4.20;;
8488;SDS011;4281;45.772;12.852;2023-04-28T00:52:56;4.60;;;4.30;;
8488;SDS011;4281;45.772;12.852;2023-04-28T00:55:26;5.00;;;4.53;;
8488;SDS011;4281;45.772;12.852;2023-04-28T00:57:55;4.77;;;4.37;;
8488;SDS011;4281;45.772;12.852;2023-04-28T01:00:23;4.50;;;4.10;;
8488;SDS011;4281;45.772;12.852;2023-04-28T01:02:51;4.70;;;4.30;;
8488;SDS011;4281;45.772;12.852;2023-04-28T01:05:20;4.30;;;3.97;;
8488;SDS011;4281;45.772;12.852;2023-04-28T01:07:48;4.70;;;4.40;;
8488;SDS011;4281;45.772;12.852;2023-04-28T01:10:16;4.60;;;4.20;;
8488;SDS011;4281;45.772;12.852;2023-04-28T01:12:44;5.23;;;4.73;;
8488;SDS011;4281;45.772;12.852;2023-04-28T01:15:14;4.90;;;4.30;;
8488;SDS011;4281;45.772;12.852;2023-04-28T01:17:42;4.87;;;4.30;;
8488;SDS011;4281;45.772;12.852;2023-04-28T01:20:11;4.67;;;4.27;;
8488;SDS011;4281;45.772;12.852;2023-04-28T01:22:39;4.83;;;4.43;;
8488;SDS011;4281;45.772;12.852;2023-04-28T01:25:08;4.20;;;3.90;;
8488;SDS011;4281;45.772;12.852;2023-04-28T01:27:36;5.07;;;4.67;;
8488;SDS011;4281;45.772;12.852;2023-04-28T01:30:05;4.73;;;4.30;;
8488;SDS011;4281;45.772;12.852;2023-04-28T01:32:33;4.60;;;4.20;;
8488;SDS011;4281;45.772;12.852;2023-04-28T01:35:01;4.50;;;4.20;;
8488;SDS011;4281;45.772;12.852;2023-04-28T01:37:29;4.60;;;4.30;;
8488;SDS011;4281;45.772;12.852;2023-04-28T01:39:58;5.17;;;4.70;;
8488;SDS011;4281;45.772;12.852;2023-04-28T01:42:27;5.20;;;4.80;;
8488;SDS011;4281;45.772;12.852;2023-04-28T01:44:55;5.57;;;4.97;;
8488;SDS011;4281;45.772;12.852;2023-04-28T01:47:23;4.93;;;4.53;;
8488;SDS011;4281;45.772;12.852;2023-04-28T01:49:51;5.53;;;5.03;;
8488;SDS011;4281;45.772;12.852;2023-04-28T01:52:18;5.73;;;5.23;;
8488;SDS011;4281;45.772;12.852;2023-04-28T01:54:48;5.87;;;5.37;;
8488;SDS011;4281;45.772;12.852;2023-04-28T01:57:16;5.63;;;5.13;;
8488;SDS011;4281;45.772;12.852;2023-04-28T01:59:47;6.27;;;5.67;;
8488;SDS011;4281;45.772;12.852;2023-04-28T02:02:15;6.87;;;6.27;;
8488;SDS011;4281;45.772;12.852;2023-04-28T02:04:42;6.27;;;5.70;;
8488;SDS011;4281;45.772;12.852;2023-04-28T02:07:10;6.10;;;5.50;;
8488;SDS011;4281;45.772;12.852;2023-04-28T02:09:38;6.00;;;5.50;;
8488;SDS011;4281;45.772;12.852;2023-04-28T02:12:06;6.07;;;5.33;;
8488;SDS011;4281;45.772;12.852;2023-04-28T02:14:34;5.80;;;5.30;;
8488;SDS011;4281;45.772;12.852;2023-04-28T02:17:03;6.60;;;5.83;;
8488;SDS011;4281;45.772;12.852;2023-04-28T02:19:31;5.70;;;5.10;;
8488;SDS011;4281;45.772;12.852;2023-04-28T02:21:59;6.37;;;5.77;;
8488;SDS011;4281;45.772;12.852;2023-04-28T02:24:27;5.60;;;5.10;;
8488;SDS011;4281;45.772;12.852;2023-04-28T02:26:55;6.33;;;5.73;;
8488;SDS011;4281;45.772;12.852;2023-04-28T02:29:25;5.83;;;5.00;;
8488;SDS011;4281;45.772;12.852;2023-04-28T02:31:53;5.40;;;4.90;;
8488;SDS011;4281;45.772;12.852;2023-04-28T02:34:22;5.67;;;5.17;;
8488;SDS011;4281;45.772;12.852;2023-04-28T02:36:50;5.77;;;5.27;;
8488;SDS011;4281;45.772;12.852;2023-04-28T02:39:17;5.43;;;4.93;;
8488;SDS011;4281;45.772;12.852;2023-04-28T02:41:48;5.93;;;5.40;;
8488;SDS011;4281;45.772;12.852;2023-04-28T02:44:15;5.63;;;5.13;;
8488;SDS011;4281;45.772;12.852;2023-04-28T02:46:43;5.27;;;4.87;;
8488;SDS011;4281;45.772;12.852;2023-04-28T02:49:11;6.10;;;5.60;;
8488;SDS011;4281;45.772;12.852;2023-04-28T02:51:40;6.10;;;5.50;;
8488;SDS011;4281;45.772;12.852;2023-04-28T02:54:10;6.10;;;5.60;;
8488;SDS011;4281;45.772;12.852;2023-04-28T02:56:38;6.07;;;5.47;;
8488;SDS011;4281;45.772;12.852;2023-04-28T02:59:06;6.03;;;5.43;;
8488;SDS011;4281;45.772;12.852;2023-04-28T03:01:34;5.73;;;5.23;;
8488;SDS011;4281;45.772;12.852;2023-04-28T03:04:02;5.00;;;4.60;;
8488;SDS011;4281;45.772;12.852;2023-04-28T03:06:31;5.27;;;4.80;;
8488;SDS011;4281;45.772;12.852;2023-04-28T03:09:00;5.70;;;5.20;;
8488;SDS011;4281;45.772;12.852;2023-04-28T03:11:28;5.90;;;5.40;;
8488;SDS011;4281;45.772;12.852;2023-04-28T03:13:56;4.97;;;4.57;;
8488;SDS011;4281;45.772;12.852;2023-04-28T03:16:23;4.83;;;4.40;;
8488;SDS011;4281;45.772;12.852;2023-04-28T03:18:51;5.13;;;4.63;;
8488;SDS011;4281;45.772;12.852;2023-04-28T03:21:19;4.70;;;4.30;;
8488;SDS011;4281;45.772;12.852;2023-04-28T03:23:47;5.10;;;4.70;;
8488;SDS011;4281;45.772;12.852;2023-04-28T03:26:16;5.30;;;4.80;;
8488;SDS011;4281;45.772;12.852;2023-04-28T03:28:44;4.90;;;4.50;;
8488;SDS011;4281;45.772;12.852;2023-04-28T03:31:12;4.77;;;4.37;;
8488;SDS011;4281;45.772;12.852;2023-04-28T03:33:39;5.17;;;4.77;;
8488;SDS011;4281;45.772;12.852;2023-04-28T03:36:10;5.10;;;4.60;;
8488;SDS011;4281;45.772;12.852;2023-04-28T03:38:38;5.67;;;4.57;;
8488;SDS011;4281;45.772;12.852;2023-04-28T03:41:07;5.00;;;4.60;;
8488;SDS011;4281;45.772;12.852;2023-04-28T03:43:36;5.07;;;4.67;;
8488;SDS011;4281;45.772;12.852;2023-04-28T03:46:03;5.23;;;4.83;;
8488;SDS011;4281;45.772;12.852;2023-04-28T03:48:32;4.80;;;4.40;;
8488;SDS011;4281;45.772;12.852;2023-04-28T03:50:59;4.77;;;4.03;;
8488;SDS011;4281;45.772;12.852;2023-04-28T03:53:27;4.43;;;4.03;;
8488;SDS011;4281;45.772;12.852;2023-04-28T03:55:55;4.50;;;4.10;;
8488;SDS011;4281;45.772;12.852;2023-04-28T03:58:23;4.70;;;4.30;;
8488;SDS011;4281;45.772;12.852;2023-04-28T04:00:53;4.83;;;4.33;;
8488;SDS011;4281;45.772;12.852;2023-04-28T04:03:21;4.17;;;3.77;;
8488;SDS011;4281;45.772;12.852;2023-04-28T04:05:52;4.33;;;4.00;;
8488;SDS011;4281;45.772;12.852;2023-04-28T04:08:21;5.00;;;4.30;;
8488;SDS011;4281;45.772;12.852;2023-04-28T04:10:49;4.47;;;4.07;;
8488;SDS011;4281;45.772;12.852;2023-04-28T04:13:17;4.33;;;3.97;;
8488;SDS011;4281;45.772;12.852;2023-04-28T04:15:45;4.70;;;4.30;;
8488;SDS011;4281;45.772;12.852;2023-04-28T04:18:14;4.63;;;4.23;;
8488;SDS011;4281;45.772;12.852;2023-04-28T04:20:42;4.27;;;3.87;;
8488;SDS011;4281;45.772;12.852;2023-04-28T04:23:10;4.50;;;4.10;;
8488;SDS011;4281;45.772;12.852;2023-04-28T04:25:38;4.47;;;4.07;;
8488;SDS011;4281;45.772;12.852;2023-04-28T04:28:06;5.27;;;4.63;;
8488;SDS011;4281;45.772;12.852;2023-04-28T04:30:33;4.43;;;3.90;;
8488;SDS011;4281;45.772;12.852;2023-04-28T04:33:02;4.40;;;4.00;;
8488;SDS011;4281;45.772;12.852;2023-04-28T04:35:31;4.30;;;3.90;;
8488;SDS011;4281;45.772;12.852;2023-04-28T04:37:59;4.60;;;4.10;;
8488;SDS011;4281;45.772;12.852;2023-04-28T04:40:28;4.40;;;4.00;;
8488;SDS011;4281;45.772;12.852;2023-04-28T04:42:55;4.00;;;3.70;;
8488;SDS011;4281;45.772;12.852;2023-04-28T04:45:23;4.47;;;3.67;;
8488;SDS011;4281;45.772;12.852;2023-04-28T04:47:51;4.20;;;3.80;;
8488;SDS011;4281;45.772;12.852;2023-04-28T04:50:19;3.90;;;3.60;;
8488;SDS011;4281;45.772;12.852;2023-04-28T04:52:49;4.20;;;3.80;;
8488;SDS011;4281;45.772;12.852;2023-04-28T04:55:17;4.07;;;3.67;;
8488;SDS011;4281;45.772;12.852;2023-04-28T04:57:45;3.93;;;3.50;;
8488;SDS011;4281;45.772;12.852;2023-04-28T05:00:13;3.37;;;3.07;;
8488;SDS011;4281;45.772;12.852;2023-04-28T05:02:42;3.53;;;3.23;;
8488;SDS011;4281;45.772;12.852;2023-04-28T05:05:10;4.07;;;3.67;;
8488;SDS011;4281;45.772;12.852;2023-04-28T05:07:44;4.27;;;3.87;;
8488;SDS011;4281;45.772;12.852;2023-04-28T05:10:14;4.10;;;3.70;;
8488;SDS011;4281;45.772;12.852;2023-04-28T05:12:42;4.73;;;4.13;;
8488;SDS011;4281;45.772;12.852;2023-04-28T05:15:13;5.47;;;4.60;;
8488;SDS011;4281;45.772;12.852;2023-04-28T05:17:41;5.13;;;4.40;;
8488;SDS011;4281;45.772;12.852;2023-04-28T05:20:09;4.60;;;4.20;;
8488;SDS011;4281;45.772;12.852;2023-04-28T05:22:38;4.20;;;3.80;;
8488;SDS011;4281;45.772;12.852;2023-04-28T05:25:06;3.70;;;3.40;;
8488;SDS011;4281;45.772;12.852;2023-04-28T05:27:36;3.47;;;3.17;;
8488;SDS011;4281;45.772;12.852;2023-04-28T05:30:06;3.43;;;3.13;;
8488;SDS011;4281;45.772;12.852;2023-04-28T05:32:36;3.30;;;3.00;;
8488;SDS011;4281;45.772;12.852;2023-04-28T05:35:04;4.50;;;3.20;;
8488;SDS011;4281;45.772;12.852;2023-04-28T05:37:32;3.70;;;3.40;;
8488;SDS011;4281;45.772;12.852;2023-04-28T05:40:00;3.53;;;3.23;;
8488;SDS011;4281;45.772;12.852;2023-04-28T05:42:28;3.87;;;3.57;;
8488;SDS011;4281;45.772;12.852;2023-04-28T05:44:57;3.80;;;3.33;;
8488;SDS011;4281;45.772;12.852;2023-04-28T05:47:25;3.77;;;3.33;;
8488;SDS011;4281;45.772;12.852;2023-04-28T05:49:56;6.37;;;3.30;;
8488;SDS011;4281;45.772;12.852;2023-04-28T05:52:23;4.17;;;3.30;;
8488;SDS011;4281;45.772;12.852;2023-04-28T05:54:51;3.33;;;3.07;;
8488;SDS011;4281;45.772;12.852;2023-04-28T05:57:19;3.67;;;3.33;;
8488;SDS011;4281;45.772;12.852;2023-04-28T05:59:48;3.67;;;3.33;;
8488;SDS011;4281;45.772;12.852;2023-04-28T06:02:17;3.43;;;3.13;;
8488;SDS011;4281;45.772;12.852;2023-04-28T06:04:48;4.60;;;3.57;;
8488;SDS011;4281;45.772;12.852;2023-04-28T06:07:16;3.20;;;3.00;;
8488;SDS011;4281;45.772;12.852;2023-04-28T06:09:44;3.67;;;3.37;;
8488;SDS011;4281;45.772;12.852;2023-04-28T06:12:12;3.90;;;3.50;;
8488;SDS011;4281;45.772;12.852;2023-04-28T06:14:40;5.43;;;3.10;;
8488;SDS011;4281;45.772;12.852;2023-04-28T06:17:08;5.50;;;3.50;;
8488;SDS011;4281;45.772;12.852;2023-04-28T06:19:37;3.13;;;2.83;;
8488;SDS011;4281;45.772;12.852;2023-04-28T06:22:05;3.40;;;2.90;;
8488;SDS011;4281;45.772;12.852;2023-04-28T06:24:33;3.03;;;2.73;;
8488;SDS011;4281;45.772;12.852;2023-04-28T06:27:02;3.03;;;2.60;;
8488;SDS011;4281;45.772;12.852;2023-04-28T06:29:30;3.80;;;3.23;;
8488;SDS011;4281;45.772;12.852;2023-04-28T06:31:58;2.90;;;2.60;;
8488;SDS011;4281;45.772;12.852;2023-04-28T06:34:25;3.17;;;2.87;;
8488;SDS011;4281;45.772;12.852;2023-04-28T06:36:55;4.47;;;2.70;;
8488;SDS011;4281;45.772;12.852;2023-04-28T06:39:24;3.17;;;2.47;;
8488;SDS011;4281;45.772;12.852;2023-04-28T06:41:52;2.93;;;2.50;;
8488;SDS011;4281;45.772;12.852;2023-04-28T06:44:20;2.80;;;2.60;;
8488;SDS011;4281;45.772;12.852;2023-04-28T06:46:48;3.97;;;2.50;;
8488;SDS011;4281;45.772;12.852;2023-04-28T06:49:16;3.20;;;2.80;;
8488;SDS011;4281;45.772;12.852;2023-04-28T06:51:44;2.63;;;2.43;;
8488;SDS011;4281;45.772;12.852;2023-04-28T06:54:13;3.63;;;2.60;;
8488;SDS011;4281;45.772;12.852;2023-04-28T06:56:42;2.97;;;2.67;;
8488;SDS011;4281;45.772;12.852;2023-04-28T06:59:10;2.60;;;2.40;;
8488;SDS011;4281;45.772;12.852;2023-04-28T07:01:37;3.53;;;3.17;;
8488;SDS011;4281;45.772;12.852;2023-04-28T07:04:05;3.13;;;2.83;;
8488;SDS011;4281;45.772;12.852;2023-04-28T07:06:33;3.03;;;2.70;;
8488;SDS011;4281;45.772;12.852;2023-04-28T07:09:01;3.83;;;2.90;;
8488;SDS011;4281;45.772;12.852;2023-04-28T07:11:31;2.90;;;2.60;;
8488;SDS011;4281;45.772;12.852;2023-04-28T07:13:59;3.30;;;2.90;;
8488;SDS011;4281;45.772;12.852;2023-04-28T07:16:27;4.07;;;3.10;;
8488;SDS011;4281;45.772;12.852;2023-04-28T07:18:55;3.60;;;2.90;;
8488;SDS011;4281;45.772;12.852;2023-04-28T07:21:23;3.63;;;2.63;;
8488;SDS011;4281;45.772;12.852;2023-04-28T07:23:51;2.60;;;2.40;;
8488;SDS011;4281;45.772;12.852;2023-04-28T07:26:22;3.30;;;3.00;;
8488;SDS011;4281;45.772;12.852;2023-04-28T07:28:51;3.73;;;3.17;;
8488;SDS011;4281;45.772;12.852;2023-04-28T07:31:19;3.37;;;3.07;;
8488;SDS011;4281;45.772;12.852;2023-04-28T07:33:48;2.97;;;2.63;;
8488;SDS011;4281;45.772;12.852;2023-04-28T07:36:16;4.70;;;3.63;;
8488;SDS011;4281;45.772;12.852;2023-04-28T07:38:45;4.23;;;3.60;;
8488;SDS011;4281;45.772;12.852;2023-04-28T07:41:13;3.77;;;3.03;;
8488;SDS011;4281;45.772;12.852;2023-04-28T07:43:44;3.40;;;3.10;;
8488;SDS011;4281;45.772;12.852;2023-04-28T07:46:13;3.77;;;3.27;;
8488;SDS011;4281;45.772;12.852;2023-04-28T07:48:41;4.80;;;3.70;;
8488;SDS011;4281;45.772;12.852;2023-04-28T07:51:08;3.17;;;2.87;;
8488;SDS011;4281;45.772;12.852;2023-04-28T07:53:36;3.40;;;3.10;;
8488;SDS011;4281;45.772;12.852;2023-04-28T07:56:04;3.47;;;2.83;;
8488;SDS011;4281;45.772;12.852;2023-04-28T07:58:32;3.50;;;3.10;;
8488;SDS011;4281;45.772;12.852;2023-04-28T08:01:00;4.50;;;3.27;;
8488;SDS011;4281;45.772;12.852;2023-04-28T08:03:29;3.90;;;3.20;;
8488;SDS011;4281;45.772;12.852;2023-04-28T08:05:58;6.83;;;3.30;;
8488;SDS011;4281;45.772;12.852;2023-04-28T08:08:26;3.60;;;3.27;;
8488;SDS011;4281;45.772;12.852;2023-04-28T08:10:55;5.67;;;3.30;;
8488;SDS011;4281;45.772;12.852;2023-04-28T08:13:24;4.17;;;3.00;;
8488;SDS011;4281;45.772;12.852;2023-04-28T08:15:52;3.70;;;3.07;;
8488;SDS011;4281;45.772;12.852;2023-04-28T08:18:22;3.30;;;3.00;;
8488;SDS011;4281;45.772;12.852;2023-04-28T08:20:53;3.57;;;3.00;;
8488;SDS011;4281;45.772;12.852;2023-04-28T08:23:21;3.20;;;2.90;;
8488;SDS011;4281;45.772;12.852;2023-04-28T08:25:48;3.37;;;2.80;;
8488;SDS011;4281;45.772;12.852;2023-04-28T08:28:16;3.30;;;2.50;;
8488;SDS011;4281;45.772;12.852;2023-04-28T08:30:44;3.00;;;2.80;;
8488;SDS011;4281;45.772;12.852;2023-04-28T08:33:12;2.87;;;2.60;;
8488;SDS011;4281;45.772;12.852;2023-04-28T08:35:40;3.83;;;2.40;;
8488;SDS011;4281;45.772;12.852;2023-04-28T08:38:09;3.43;;;2.60;;
8488;SDS011;4281;45.772;12.852;2023-04-28T08:40:40;3.53;;;2.73;;
8488;SDS011;4281;45.772;12.852;2023-04-28T08:43:09;3.63;;;2.60;;
8488;SDS011;4281;45.772;12.852;2023-04-28T08:45:39;3.23;;;2.70;;
8488;SDS011;4281;45.772;12.852;2023-04-28T08:48:12;3.27;;;2.97;;
8488;SDS011;4281;45.772;12.852;2023-04-28T08:50:47;2.70;;;2.50;;
8488;SDS011;4281;45.772;12.852;2023-04-28T08:53:20;3.20;;;2.67;;
8488;SDS011;4281;45.772;12.852;2023-04-28T08:55:50;4.03;;;2.67;;
8488;SDS011;4281;45.772;12.852;2023-04-28T08:58:19;3.97;;;2.80;;
8488;SDS011;4281;45.772;12.852;2023-04-28T09:00:49;3.40;;;3.10;;
8488;SDS011;4281;45.772;12.852;2023-04-28T09:03:17;3.40;;;2.70;;
8488;SDS011;4281;45.772;12.852;2023-04-28T09:05:46;4.30;;;3.00;;
8488;SDS011;4281;45.772;12.852;2023-04-28T09:08:14;4.53;;;3.33;;
8488;SDS011;4281;45.772;12.852;2023-04-28T09:10:45;3.70;;;3.30;;
8488;SDS011;4281;45.772;12.852;2023-04-28T09:13:23;5.10;;;3.43;;
8488;SDS011;4281;45.772;12.852;2023-04-28T09:15:51;4.43;;;3.07;;
8488;SDS011;4281;45.772;12.852;2023-04-28T09:18:26;5.50;;;2.73;;
8488;SDS011;4281;45.772;12.852;2023-04-28T09:21:01;2.80;;;2.60;;
8488;SDS011;4281;45.772;12.852;2023-04-28T09:23:29;3.33;;;2.60;;
8488;SDS011;4281;45.772;12.852;2023-04-28T09:26:00;3.10;;;2.80;;
8488;SDS011;4281;45.772;12.852;2023-04-28T09:28:29;3.27;;;2.43;;
8488;SDS011;4281;45.772;12.852;2023-04-28T09:30:57;3.63;;;2.43;;
8488;SDS011;4281;45.772;12.852;2023-04-28T09:33:25;2.70;;;2.50;;
8488;SDS011;4281;45.772;12.852;2023-04-28T09:35:53;2.47;;;2.27;;
8488;SDS011;4281;45.772;12.852;2023-04-28T09:38:21;2.87;;;2.57;;
8488;SDS011;4281;45.772;12.852;2023-04-28T09:40:50;2.40;;;2.20;;
8488;SDS011;4281;45.772;12.852;2023-04-28T09:43:24;2.10;;;1.90;;
8488;SDS011;4281;45.772;12.852;2023-04-28T09:45:53;2.90;;;2.30;;
8488;SDS011;4281;45.772;12.852;2023-04-28T09:48:28;3.03;;;2.17;;
8488;SDS011;4281;45.772;12.852;2023-04-28T09:50:57;2.57;;;2.37;;
8488;SDS011;4281;45.772;12.852;2023-04-28T09:53:26;2.30;;;2.10;;
8488;SDS011;4281;45.772;12.852;2023-04-28T09:55:54;2.17;;;2.00;;
8488;SDS011;4281;45.772;12.852;2023-04-28T09:58:25;3.73;;;2.40;;
8488;SDS011;4281;45.772;12.852;2023-04-28T10:00:54;3.73;;;2.40;;
8488;SDS011;4281;45.772;12.852;2023-04-28T10:03:23;2.00;;;1.80;;
8488;SDS011;4281;45.772;12.852;2023-04-28T10:06:12;2.27;;;1.90;;
8488;SDS011;4281;45.772;12.852;2023-04-28T10:08:40;3.17;;;2.50;;
8488;SDS011;4281;45.772;12.852;2023-04-28T10:11:08;2.40;;;2.20;;
8488;SDS011;4281;45.772;12.852;2023-04-28T10:13:37;2.60;;;2.40;;
8488;SDS011;4281;45.772;12.852;2023-04-28T10:16:05;2.30;;;2.10;;
8488;SDS011;4281;45.772;12.852;2023-04-28T10:18:34;2.57;;;1.77;;
8488;SDS011;4281;45.772;12.852;2023-04-28T10:21:03;2.07;;;1.87;;
8488;SDS011;4281;45.772;12.852;2023-04-28T10:23:46;2.07;;;1.77;;
8488;SDS011;4281;45.772;12.852;2023-04-28T10:26:26;1.50;;;1.40;;
8488;SDS011;4281;45.772;12.852;2023-04-28T10:29:05;2.27;;;1.67;;
8488;SDS011;4281;45.772;12.852;2023-04-28T10:31:33;2.00;;;1.70;;
8488;SDS011;4281;45.772;12.852;2023-04-28T10:36:48;2.67;;;1.83;;
8488;SDS011;4281;45.772;12.852;2023-04-28T10:39:18;2.30;;;1.93;;
8488;SDS011;4281;45.772;12.852;2023-04-28T10:41:46;2.47;;;2.27;;
8488;SDS011;4281;45.772;12.852;2023-04-28T10:47:10;2.50;;;2.03;;
8488;SDS011;4281;45.772;12.852;2023-04-28T10:50:03;2.43;;;2.23;;
8488;SDS011;4281;45.772;12.852;2023-04-28T10:52:47;1.90;;;1.73;;
8488;SDS011;4281;45.772;12.852;2023-04-28T10:55:28;2.17;;;1.87;;
8488;SDS011;4281;45.772;12.852;2023-04-28T11:03:55;2.70;;;2.00;;
8488;SDS011;4281;45.772;12.852;2023-04-28T11:06:30;2.50;;;2.10;;
8488;SDS011;4281;45.772;12.852;2023-04-28T11:09:00;2.67;;;2.07;;
8488;SDS011;4281;45.772;12.852;2023-04-28T11:11:29;3.23;;;2.57;;
8488;SDS011;4281;45.772;12.852;2023-04-28T11:17:04;2.40;;;2.20;;
8488;SDS011;4281;45.772;12.852;2023-04-28T11:19:34;2.67;;;2.10;;
8488;SDS011;4281;45.772;12.852;2023-04-28T11:22:03;2.43;;;2.10;;
8488;SDS011;4281;45.772;12.852;2023-04-28T11:24:36;1.97;;;1.77;;
8488;SDS011;4281;45.772;12.852;2023-04-28T11:27:04;2.00;;;1.73;;
8488;SDS011;4281;45.772;12.852;2023-04-28T11:29:32;1.80;;;1.70;;
8488;SDS011;4281;45.772;12.852;2023-04-28T11:32:04;2.13;;;1.93;;
8488;SDS011;4281;45.772;12.852;2023-04-28T11:34:34;1.73;;;1.60;;
8488;SDS011;4281;45.772;12.852;2023-04-28T11:37:02;1.63;;;1.53;;
8488;SDS011;4281;45.772;12.852;2023-04-28T11:39:31;1.93;;;1.73;;
8488;SDS011;4281;45.772;12.852;2023-04-28T11:42:00;2.10;;;1.90;;
8488;SDS011;4281;45.772;12.852;2023-04-28T11:44:29;2.10;;;1.90;;
8488;SDS011;4281;45.772;12.852;2023-04-28T11:46:59;2.10;;;1.90;;
8488;SDS011;4281;45.772;12.852;2023-04-28T11:49:30;3.07;;;2.10;;
8488;SDS011;4281;45.772;12.852;2023-04-28T11:52:03;2.03;;;1.73;;
8488;SDS011;4281;45.772;12.852;2023-04-28T11:54:31;2.10;;;2.00;;
8488;SDS011;4281;45.772;12.852;2023-04-28T11:56:59;2.20;;;2.00;;
8488;SDS011;4281;45.772;12.852;2023-04-28T11:59:29;3.40;;;2.10;;
8488;SDS011;4281;45.772;12.852;2023-04-28T12:02:00;2.30;;;2.10;;
8488;SDS011;4281;45.772;12.852;2023-04-28T12:04:30;2.40;;;2.07;;
8488;SDS011;4281;45.772;12.852;2023-04-28T12:07:02;1.90;;;1.80;;
8488;SDS011;4281;45.772;12.852;2023-04-28T12:09:31;2.13;;;1.60;;
8488;SDS011;4281;45.772;12.852;2023-04-28T12:12:00;3.80;;;1.77;;
8488;SDS011;4281;45.772;12.852;2023-04-28T12:14:29;1.90;;;1.60;;
8488;SDS011;4281;45.772;12.852;2023-04-28T12:17:00;1.47;;;1.37;;
8488;SDS011;4281;45.772;12.852;2023-04-28T12:19:41;1.80;;;1.60;;
8488;SDS011;4281;45.772;12.852;2023-04-28T12:22:10;1.97;;;1.70;;
8488;SDS011;4281;45.772;12.852;2023-04-28T12:24:38;2.40;;;1.97;;
8488;SDS011;4281;45.772;12.852;2023-04-28T12:27:15;1.87;;;1.77;;
8488;SDS011;4281;45.772;12.852;2023-04-28T12:29:47;2.10;;;1.90;;
8488;SDS011;4281;45.772;12.852;2023-04-28T12:32:15;2.10;;;1.83;;
8488;SDS011;4281;45.772;12.852;2023-04-28T12:34:44;1.80;;;1.70;;
8488;SDS011;4281;45.772;12.852;2023-04-28T12:37:13;2.00;;;1.80;;
8488;SDS011;4281;45.772;12.852;2023-04-28T12:39:42;2.50;;;2.17;;
8488;SDS011;4281;45.772;12.852;2023-04-28T12:42:10;2.10;;;1.70;;
8488;SDS011;4281;45.772;12.852;2023-04-28T12:44:38;2.47;;;1.37;;
8488;SDS011;4281;45.772;12.852;2023-04-28T12:47:08;2.40;;;1.80;;
8488;SDS011;4281;45.772;12.852;2023-04-28T12:49:37;2.03;;;1.63;;
8488;SDS011;4281;45.772;12.852;2023-04-28T12:52:09;1.70;;;1.60;;
8488;SDS011;4281;45.772;12.852;2023-04-28T12:54:37;1.93;;;1.70;;
8488;SDS011;4281;45.772;12.852;2023-04-28T12:57:12;1.57;;;1.47;;
8488;SDS011;4281;45.772;12.852;2023-04-28T12:59:40;1.60;;;1.50;;
8488;SDS011;4281;45.772;12.852;2023-04-28T13:02:08;2.50;;;1.60;;
8488;SDS011;4281;45.772;12.852;2023-04-28T13:04:36;1.50;;;1.20;;
8488;SDS011;4281;45.772;12.852;2023-04-28T13:07:05;1.83;;;1.50;;
8488;SDS011;4281;45.772;12.852;2023-04-28T13:09:34;1.40;;;1.30;;
8488;SDS011;4281;45.772;12.852;2023-04-28T13:12:03;1.70;;;1.50;;
8488;SDS011;4281;45.772;12.852;2023-04-28T13:14:32;1.60;;;1.50;;
8488;SDS011;4281;45.772;12.852;2023-04-28T13:17:00;2.03;;;1.70;;
8488;SDS011;4281;45.772;12.852;2023-04-28T13:19:29;2.33;;;1.40;;
8488;SDS011;4281;45.772;12.852;2023-04-28T13:21:59;2.13;;;1.70;;
8488;SDS011;4281;45.772;12.852;2023-04-28T13:24:31;1.87;;;1.63;;
8488;SDS011;4281;45.772;12.852;2023-04-28T13:26:59;1.60;;;1.27;;
8488;SDS011;4281;45.772;12.852;2023-04-28T13:29:28;2.00;;;1.67;;
8488;SDS011;4281;45.772;12.852;2023-04-28T13:31:55;1.60;;;1.50;;
8488;SDS011;4281;45.772;12.852;2023-04-28T13:34:23;1.90;;;1.47;;
8488;SDS011;4281;45.772;12.852;2023-04-28T13:36:51;2.83;;;1.57;;
8488;SDS011;4281;45.772;12.852;2023-04-28T13:39:20;1.83;;;1.60;;
8488;SDS011;4281;45.772;12.852;2023-04-28T13:41:49;2.03;;;1.70;;
8488;SDS011;4281;45.772;12.852;2023-04-28T13:44:17;2.33;;;1.77;;
8488;SDS011;4281;45.772;12.852;2023-04-28T13:46:45;2.07;;;1.70;;
8488;SDS011;4281;45.772;12.852;2023-04-28T13:49:13;2.30;;;1.73;;
8488;SDS011;4281;45.772;12.852;2023-04-28T13:51:41;2.10;;;1.90;;
8488;SDS011;4281;45.772;12.852;2023-04-28T13:54:10;2.90;;;1.97;;
8488;SDS011;4281;45.772;12.852;2023-04-28T13:56:38;3.53;;;1.80;;
8488;SDS011;4281;45.772;12.852;2023-04-28T13:59:08;2.00;;;1.80;;
8488;SDS011;4281;45.772;12.852;2023-04-28T14:01:36;2.20;;;1.80;;
8488;SDS011;4281;45.772;12.852;2023-04-28T14:04:03;2.27;;;2.00;;
8488;SDS011;4281;45.772;12.852;2023-04-28T14:06:33;2.17;;;1.80;;
8488;SDS011;4281;45.772;12.852;2023-04-28T14:09:02;2.10;;;1.90;;
8488;SDS011;4281;45.772;12.852;2023-04-28T14:11:30;2.33;;;2.00;;
8488;SDS011;4281;45.772;12.852;2023-04-28T14:13:58;2.53;;;1.93;;
8488;SDS011;4281;45.772;12.852;2023-04-28T14:16:30;2.30;;;1.83;;
8488;SDS011;4281;45.772;12.852;2023-04-28T14:18:58;2.17;;;1.93;;
8488;SDS011;4281;45.772;12.852;2023-04-28T14:21:26;2.07;;;1.73;;
8488;SDS011;4281;45.772;12.852;2023-04-28T14:23:54;2.63;;;1.90;;
8488;SDS011;4281;45.772;12.852;2023-04-28T14:26:22;2.10;;;1.80;;
8488;SDS011;4281;45.772;12.852;2023-04-28T14:28:50;2.13;;;1.70;;
8488;SDS011;4281;45.772;12.852;2023-04-28T14:31:18;2.77;;;2.20;;
8488;SDS011;4281;45.772;12.852;2023-04-28T14:33:47;3.13;;;2.07;;
8488;SDS011;4281;45.772;12.852;2023-04-28T14:36:15;2.30;;;1.93;;
8488;SDS011;4281;45.772;12.852;2023-04-28T14:38:43;2.30;;;2.10;;
8488;SDS011;4281;45.772;12.852;2023-04-28T14:41:11;3.00;;;1.93;;
8488;SDS011;4281;45.772;12.852;2023-04-28T14:43:39;2.50;;;2.30;;
8488;SDS011;4281;45.772;12.852;2023-04-28T14:46:07;2.37;;;2.17;;
8488;SDS011;4281;45.772;12.852;2023-04-28T14:48:35;2.53;;;2.03;;
8488;SDS011;4281;45.772;12.852;2023-04-28T14:51:05;2.63;;;2.37;;
8488;SDS011;4281;45.772;12.852;2023-04-28T14:53:33;3.07;;;2.10;;
8488;SDS011;4281;45.772;12.852;2023-04-28T14:56:01;3.23;;;1.90;;
8488;SDS011;4281;45.772;12.852;2023-04-28T14:58:44;2.27;;;2.07;;
8488;SDS011;4281;45.772;12.852;2023-04-28T15:01:11;2.57;;;2.10;;
8488;SDS011;4281;45.772;12.852;2023-04-28T15:03:39;2.50;;;2.30;;
8488;SDS011;4281;45.772;12.852;2023-04-28T15:06:09;2.20;;;2.00;;
8488;SDS011;4281;45.772;12.852;2023-04-28T15:08:38;2.43;;;2.00;;
8488;SDS011;4281;45.772;12.852;2023-04-28T15:11:06;3.10;;;2.10;;
8488;SDS011;4281;45.772;12.852;2023-04-28T15:13:34;3.00;;;1.90;;
8488;SDS011;4281;45.772;12.852;2023-04-28T15:16:03;2.73;;;1.83;;
8488;SDS011;4281;45.772;12.852;2023-04-28T15:18:31;1.90;;;1.80;;
8488;SDS011;4281;45.772;12.852;2023-04-28T15:20:59;2.57;;;2.00;;
8488;SDS011;4281;45.772;12.852;2023-04-28T15:23:29;2.97;;;2.27;;
8488;SDS011;4281;45.772;12.852;2023-04-28T15:25:57;2.53;;;2.17;;